sensor_id;sensor_type;location;lat;lon;timestamp;temperature;humidity
21275;DHT22;36472;52.170;20.884;2022-08-25T00:00:19;31.90;60.70
21275;DHT22;36472;52.170;20.884;2022-08-25T00:03:03;32.20;60.20
21275;DHT22;36472;52.170;20.884;2022-08-25T00:05:32;32.50;59.50
21275;DHT22;36472;52.170;20.884;2022-08-25T00:08:03;32.30;59.60
21275;DHT22;36472;52.170;20.884;2022-08-25T00:10:34;32.20;59.80
21275;DHT22;36472;52.170;20.884;2022-08-25T00:13:04;32.20;59.80
21275;DHT22;36472;52.170;20.884;2022-08-25T00:15:34;32.30;60.00
21275;DHT22;36472;52.170;20.884;2022-08-25T00:18:04;32.40;59.60
21275;DHT22;36472;52.170;20.884;2022-08-25T00:20:46;32.60;59.40
21275;DHT22;36472;52.170;20.884;2022-08-25T00:23:17;32.50;59.50
21275;DHT22;36472;52.170;20.884;2022-08-25T00:25:46;32.40;59.90
21275;DHT22;36472;52.170;20.884;2022-08-25T00:28:16;32.30;59.80
21275;DHT22;36472;52.170;20.884;2022-08-25T00:30:44;32.20;60.00
21275;DHT22;36472;52.170;20.884;2022-08-25T00:33:13;32.30;60.20
21275;DHT22;36472;52.170;20.884;2022-08-25T00:35:43;31.90;60.70
21275;DHT22;36472;52.170;20.884;2022-08-25T00:38:12;31.60;61.60
21275;DHT22;36472;52.170;20.884;2022-08-25T00:40:44;31.60;61.90
21275;DHT22;36472;52.170;20.884;2022-08-25T00:43:35;31.10;63.00
21275;DHT22;36472;52.170;20.884;2022-08-25T00:46:14;31.40;62.80
21275;DHT22;36472;52.170;20.884;2022-08-25T00:48:48;31.60;62.20
21275;DHT22;36472;52.170;20.884;2022-08-25T00:51:24;31.90;62.00
21275;DHT22;36472;52.170;20.884;2022-08-25T00:54:00;31.90;61.60
21275;DHT22;36472;52.170;20.884;2022-08-25T00:56:31;32.00;61.40
21275;DHT22;36472;52.170;20.884;2022-08-25T00:59:02;32.10;61.20
21275;DHT22;36472;52.170;20.884;2022-08-25T01:01:32;32.20;61.10
21275;DHT22;36472;52.170;20.884;2022-08-25T01:04:02;32.10;61.10
21275;DHT22;36472;52.170;20.884;2022-08-25T01:06:34;32.10;61.20
21275;DHT22;36472;52.170;20.884;2022-08-25T01:09:05;32.20;61.30
21275;DHT22;36472;52.170;20.884;2022-08-25T01:11:36;32.30;61.00
21275;DHT22;36472;52.170;20.884;2022-08-25T01:14:06;31.70;62.30
21275;DHT22;36472;52.170;20.884;2022-08-25T01:16:38;31.60;62.60
21275;DHT22;36472;52.170;20.884;2022-08-25T01:19:09;31.10;63.80
21275;DHT22;36472;52.170;20.884;2022-08-25T01:21:46;31.30;63.80
21275;DHT22;36472;52.170;20.884;2022-08-25T01:24:21;31.40;63.60
21275;DHT22;36472;52.170;20.884;2022-08-25T01:26:57;31.70;63.30
21275;DHT22;36472;52.170;20.884;2022-08-25T01:29:28;31.90;62.80
21275;DHT22;36472;52.170;20.884;2022-08-25T01:32:00;31.50;63.30
21275;DHT22;36472;52.170;20.884;2022-08-25T01:34:33;31.70;63.10
21275;DHT22;36472;52.170;20.884;2022-08-25T01:37:06;31.90;62.70
21275;DHT22;36472;52.170;20.884;2022-08-25T01:39:41;32.10;62.30
21275;DHT22;36472;52.170;20.884;2022-08-25T01:42:32;32.20;62.10
21275;DHT22;36472;52.170;20.884;2022-08-25T01:45:07;32.20;61.80
21275;DHT22;36472;52.170;20.884;2022-08-25T01:47:37;32.40;61.70
21275;DHT22;36472;52.170;20.884;2022-08-25T01:50:06;32.20;61.90
21275;DHT22;36472;52.170;20.884;2022-08-25T01:52:45;32.40;61.70
21275;DHT22;36472;52.170;20.884;2022-08-25T01:55:17;32.60;61.30
21275;DHT22;36472;52.170;20.884;2022-08-25T01:57:46;32.70;61.60
21275;DHT22;36472;52.170;20.884;2022-08-25T02:00:16;32.80;60.70
21275;DHT22;36472;52.170;20.884;2022-08-25T02:02:46;32.80;60.70
21275;DHT22;36472;52.170;20.884;2022-08-25T02:05:21;32.70;60.80
21275;DHT22;36472;52.170;20.884;2022-08-25T02:07:51;32.80;60.70
21275;DHT22;36472;52.170;20.884;2022-08-25T02:10:21;32.90;60.40
21275;DHT22;36472;52.170;20.884;2022-08-25T02:12:50;33.00;60.30
21275;DHT22;36472;52.170;20.884;2022-08-25T02:15:21;33.00;60.10
21275;DHT22;36472;52.170;20.884;2022-08-25T02:17:49;33.10;59.90
21275;DHT22;36472;52.170;20.884;2022-08-25T02:20:18;33.20;59.70
21275;DHT22;36472;52.170;20.884;2022-08-25T02:22:47;33.50;59.70
21275;DHT22;36472;52.170;20.884;2022-08-25T02:25:24;33.50;59.30
21275;DHT22;36472;52.170;20.884;2022-08-25T02:27:53;33.60;59.10
21275;DHT22;36472;52.170;20.884;2022-08-25T02:30:22;33.60;59.00
21275;DHT22;36472;52.170;20.884;2022-08-25T02:32:51;33.70;58.90
21275;DHT22;36472;52.170;20.884;2022-08-25T02:35:19;33.70;59.00
21275;DHT22;36472;52.170;20.884;2022-08-25T02:37:49;33.80;58.80
21275;DHT22;36472;52.170;20.884;2022-08-25T02:40:21;33.80;58.80
21275;DHT22;36472;52.170;20.884;2022-08-25T02:42:51;33.80;58.80
21275;DHT22;36472;52.170;20.884;2022-08-25T02:45:21;33.80;58.60
21275;DHT22;36472;52.170;20.884;2022-08-25T02:47:50;33.80;58.50
21275;DHT22;36472;52.170;20.884;2022-08-25T02:50:19;33.80;58.60
21275;DHT22;36472;52.170;20.884;2022-08-25T02:52:48;33.80;58.60
21275;DHT22;36472;52.170;20.884;2022-08-25T02:55:18;33.80;58.50
21275;DHT22;36472;52.170;20.884;2022-08-25T02:57:47;33.90;58.60
21275;DHT22;36472;52.170;20.884;2022-08-25T03:00:17;33.90;58.60
21275;DHT22;36472;52.170;20.884;2022-08-25T03:02:49;33.90;58.60
21275;DHT22;36472;52.170;20.884;2022-08-25T03:05:18;33.90;58.60
21275;DHT22;36472;52.170;20.884;2022-08-25T03:07:46;33.90;58.60
21275;DHT22;36472;52.170;20.884;2022-08-25T03:10:16;33.80;58.50
21275;DHT22;36472;52.170;20.884;2022-08-25T03:12:46;33.90;58.60
21275;DHT22;36472;52.170;20.884;2022-08-25T03:15:17;33.90;58.60
21275;DHT22;36472;52.170;20.884;2022-08-25T03:17:47;33.90;58.60
21275;DHT22;36472;52.170;20.884;2022-08-25T03:20:17;33.90;58.70
21275;DHT22;36472;52.170;20.884;2022-08-25T03:22:46;34.00;58.70
21275;DHT22;36472;52.170;20.884;2022-08-25T03:25:16;34.00;58.70
21275;DHT22;36472;52.170;20.884;2022-08-25T03:28:03;34.00;58.70
21275;DHT22;36472;52.170;20.884;2022-08-25T03:30:35;34.00;58.90
21275;DHT22;36472;52.170;20.884;2022-08-25T03:33:04;34.00;58.70
21275;DHT22;36472;52.170;20.884;2022-08-25T03:35:33;34.00;58.80
21275;DHT22;36472;52.170;20.884;2022-08-25T03:38:02;34.00;58.80
21275;DHT22;36472;52.170;20.884;2022-08-25T03:40:31;34.00;58.60
21275;DHT22;36472;52.170;20.884;2022-08-25T03:43:00;34.00;58.70
21275;DHT22;36472;52.170;20.884;2022-08-25T03:45:29;34.00;58.70
21275;DHT22;36472;52.170;20.884;2022-08-25T03:47:59;34.00;58.70
21275;DHT22;36472;52.170;20.884;2022-08-25T03:50:28;33.90;58.70
21275;DHT22;36472;52.170;20.884;2022-08-25T03:52:57;33.90;58.70
21275;DHT22;36472;52.170;20.884;2022-08-25T03:55:26;33.90;58.70
21275;DHT22;36472;52.170;20.884;2022-08-25T03:57:58;33.90;58.70
21275;DHT22;36472;52.170;20.884;2022-08-25T04:00:27;34.00;58.70
21275;DHT22;36472;52.170;20.884;2022-08-25T04:02:56;34.00;58.70
21275;DHT22;36472;52.170;20.884;2022-08-25T04:05:26;34.00;58.70
21275;DHT22;36472;52.170;20.884;2022-08-25T04:07:55;34.00;58.70
21275;DHT22;36472;52.170;20.884;2022-08-25T04:10:24;34.00;58.80
21275;DHT22;36472;52.170;20.884;2022-08-25T04:12:52;34.00;58.80
21275;DHT22;36472;52.170;20.884;2022-08-25T04:15:22;34.00;58.70
21275;DHT22;36472;52.170;20.884;2022-08-25T04:17:56;34.00;58.70
21275;DHT22;36472;52.170;20.884;2022-08-25T04:20:26;34.10;58.70
21275;DHT22;36472;52.170;20.884;2022-08-25T04:22:55;34.20;58.70
21275;DHT22;36472;52.170;20.884;2022-08-25T04:25:26;34.20;58.60
21275;DHT22;36472;52.170;20.884;2022-08-25T04:27:55;34.20;58.50
21275;DHT22;36472;52.170;20.884;2022-08-25T04:30:24;34.20;58.60
21275;DHT22;36472;52.170;20.884;2022-08-25T04:32:53;34.20;58.60
21275;DHT22;36472;52.170;20.884;2022-08-25T04:35:22;34.30;58.40
21275;DHT22;36472;52.170;20.884;2022-08-25T04:37:52;34.30;58.30
21275;DHT22;36472;52.170;20.884;2022-08-25T04:40:21;34.30;58.40
21275;DHT22;36472;52.170;20.884;2022-08-25T04:42:55;34.40;58.20
21275;DHT22;36472;52.170;20.884;2022-08-25T04:45:24;34.40;58.30
21275;DHT22;36472;52.170;20.884;2022-08-25T04:47:52;34.50;58.30
21275;DHT22;36472;52.170;20.884;2022-08-25T04:50:24;34.50;58.80
21275;DHT22;36472;52.170;20.884;2022-08-25T04:52:54;34.50;58.10
21275;DHT22;36472;52.170;20.884;2022-08-25T04:55:22;34.60;58.00
21275;DHT22;36472;52.170;20.884;2022-08-25T04:57:51;34.60;57.90
21275;DHT22;36472;52.170;20.884;2022-08-25T05:00:20;34.70;57.70
21275;DHT22;36472;52.170;20.884;2022-08-25T05:02:49;34.70;57.40
21275;DHT22;36472;52.170;20.884;2022-08-25T05:05:17;34.80;57.40
21275;DHT22;36472;52.170;20.884;2022-08-25T05:07:46;34.80;57.40
21275;DHT22;36472;52.170;20.884;2022-08-25T05:10:16;34.80;57.20
21275;DHT22;36472;52.170;20.884;2022-08-25T05:12:46;34.80;57.00
21275;DHT22;36472;52.170;20.884;2022-08-25T05:15:15;35.00;56.50
21275;DHT22;36472;52.170;20.884;2022-08-25T05:18:01;35.00;56.00
21275;DHT22;36472;52.170;20.884;2022-08-25T05:20:30;34.90;56.40
21275;DHT22;36472;52.170;20.884;2022-08-25T05:22:59;34.90;56.50
21275;DHT22;36472;52.170;20.884;2022-08-25T05:25:29;35.00;56.60
21275;DHT22;36472;52.170;20.884;2022-08-25T05:27:59;35.10;56.20
21275;DHT22;36472;52.170;20.884;2022-08-25T05:30:28;35.10;56.20
21275;DHT22;36472;52.170;20.884;2022-08-25T05:32:56;35.20;55.70
21275;DHT22;36472;52.170;20.884;2022-08-25T05:35:25;35.30;55.30
21275;DHT22;36472;52.170;20.884;2022-08-25T05:37:54;35.40;55.20
21275;DHT22;36472;52.170;20.884;2022-08-25T05:40:23;35.50;55.00
21275;DHT22;36472;52.170;20.884;2022-08-25T05:42:53;35.50;54.70
21275;DHT22;36472;52.170;20.884;2022-08-25T05:45:23;35.40;54.50
21275;DHT22;36472;52.170;20.884;2022-08-25T05:47:52;35.60;54.40
21275;DHT22;36472;52.170;20.884;2022-08-25T05:50:21;35.60;54.90
21275;DHT22;36472;52.170;20.884;2022-08-25T05:52:49;35.70;54.10
21275;DHT22;36472;52.170;20.884;2022-08-25T05:55:18;35.70;54.30
21275;DHT22;36472;52.170;20.884;2022-08-25T05:57:48;35.80;53.80
21275;DHT22;36472;52.170;20.884;2022-08-25T06:00:18;35.90;53.30
21275;DHT22;36472;52.170;20.884;2022-08-25T06:02:47;35.90;53.60
21275;DHT22;36472;52.170;20.884;2022-08-25T06:05:17;35.90;53.40
21275;DHT22;36472;52.170;20.884;2022-08-25T06:07:50;36.00;53.30
21275;DHT22;36472;52.170;20.884;2022-08-25T06:10:20;36.00;53.50
21275;DHT22;36472;52.170;20.884;2022-08-25T06:12:49;36.10;53.00
21275;DHT22;36472;52.170;20.884;2022-08-25T06:15:22;36.10;53.40
21275;DHT22;36472;52.170;20.884;2022-08-25T06:17:52;36.10;53.10
21275;DHT22;36472;52.170;20.884;2022-08-25T06:20:30;36.10;52.40
21275;DHT22;36472;52.170;20.884;2022-08-25T06:22:59;36.10;53.50
21275;DHT22;36472;52.170;20.884;2022-08-25T06:25:28;36.00;52.00
21275;DHT22;36472;52.170;20.884;2022-08-25T06:27:59;36.00;52.00
21275;DHT22;36472;52.170;20.884;2022-08-25T06:30:30;36.00;52.90
21275;DHT22;36472;52.170;20.884;2022-08-25T06:32:58;36.00;52.10
21275;DHT22;36472;52.170;20.884;2022-08-25T06:35:27;36.00;51.70
21275;DHT22;36472;52.170;20.884;2022-08-25T06:37:56;36.10;52.10
21275;DHT22;36472;52.170;20.884;2022-08-25T06:40:25;36.10;52.20
21275;DHT22;36472;52.170;20.884;2022-08-25T06:42:55;36.20;52.30
21275;DHT22;36472;52.170;20.884;2022-08-25T06:45:23;36.30;51.30
21275;DHT22;36472;52.170;20.884;2022-08-25T06:47:56;36.30;51.80
21275;DHT22;36472;52.170;20.884;2022-08-25T06:50:25;36.40;51.30
21275;DHT22;36472;52.170;20.884;2022-08-25T06:52:54;36.40;51.60
21275;DHT22;36472;52.170;20.884;2022-08-25T06:55:23;36.50;51.30
21275;DHT22;36472;52.170;20.884;2022-08-25T06:57:52;36.60;51.00
21275;DHT22;36472;52.170;20.884;2022-08-25T07:00:21;36.70;51.20
21275;DHT22;36472;52.170;20.884;2022-08-25T07:02:59;36.80;51.50
21275;DHT22;36472;52.170;20.884;2022-08-25T07:05:28;37.00;51.00
21275;DHT22;36472;52.170;20.884;2022-08-25T07:08:10;37.10;51.20
21275;DHT22;36472;52.170;20.884;2022-08-25T07:10:38;37.20;51.00
21275;DHT22;36472;52.170;20.884;2022-08-25T07:13:14;37.20;50.70
21275;DHT22;36472;52.170;20.884;2022-08-25T07:15:43;37.30;50.30
21275;DHT22;36472;52.170;20.884;2022-08-25T07:18:13;37.50;50.70
21275;DHT22;36472;52.170;20.884;2022-08-25T07:20:42;37.60;50.50
21275;DHT22;36472;52.170;20.884;2022-08-25T07:23:11;37.80;50.30
21275;DHT22;36472;52.170;20.884;2022-08-25T07:25:39;37.80;49.10
21275;DHT22;36472;52.170;20.884;2022-08-25T07:28:08;37.80;49.20
21275;DHT22;36472;52.170;20.884;2022-08-25T07:30:37;37.90;50.00
21275;DHT22;36472;52.170;20.884;2022-08-25T07:33:05;38.00;49.70
21275;DHT22;36472;52.170;20.884;2022-08-25T07:35:37;38.00;49.00
21275;DHT22;36472;52.170;20.884;2022-08-25T07:38:09;38.10;48.90
21275;DHT22;36472;52.170;20.884;2022-08-25T07:40:44;38.20;48.20
21275;DHT22;36472;52.170;20.884;2022-08-25T07:43:20;38.30;48.30
21275;DHT22;36472;52.170;20.884;2022-08-25T07:45:49;38.30;48.00
21275;DHT22;36472;52.170;20.884;2022-08-25T07:48:18;38.30;47.90
21275;DHT22;36472;52.170;20.884;2022-08-25T07:50:48;38.40;48.60
21275;DHT22;36472;52.170;20.884;2022-08-25T07:53:17;38.30;48.50
21275;DHT22;36472;52.170;20.884;2022-08-25T07:55:46;38.30;48.40
21275;DHT22;36472;52.170;20.884;2022-08-25T07:58:14;37.70;48.60
21275;DHT22;36472;52.170;20.884;2022-08-25T08:00:47;37.80;49.60
21275;DHT22;36472;52.170;20.884;2022-08-25T08:03:16;38.20;49.40
21275;DHT22;36472;52.170;20.884;2022-08-25T08:06:08;38.90;47.60
21275;DHT22;36472;52.170;20.884;2022-08-25T08:08:39;39.20;47.90
21275;DHT22;36472;52.170;20.884;2022-08-25T08:11:14;39.90;45.60
21275;DHT22;36472;52.170;20.884;2022-08-25T08:13:45;40.70;44.60
21275;DHT22;36472;52.170;20.884;2022-08-25T08:16:18;41.40;44.60
21275;DHT22;36472;52.170;20.884;2022-08-25T08:18:48;41.70;42.90
21275;DHT22;36472;52.170;20.884;2022-08-25T08:21:20;42.40;42.40
21275;DHT22;36472;52.170;20.884;2022-08-25T08:23:55;42.20;41.50
21275;DHT22;36472;52.170;20.884;2022-08-25T08:26:26;42.60;42.00
21275;DHT22;36472;52.170;20.884;2022-08-25T08:29:15;42.90;40.60
21275;DHT22;36472;52.170;20.884;2022-08-25T08:31:48;41.90;41.80
21275;DHT22;36472;52.170;20.884;2022-08-25T08:34:17;41.80;42.90
21275;DHT22;36472;52.170;20.884;2022-08-25T08:36:52;42.00;43.40
21275;DHT22;36472;52.170;20.884;2022-08-25T08:39:21;41.90;42.90
21275;DHT22;36472;52.170;20.884;2022-08-25T08:42:02;42.40;42.30
21275;DHT22;36472;52.170;20.884;2022-08-25T08:45:05;43.20;41.60
21275;DHT22;36472;52.170;20.884;2022-08-25T08:51:15;44.80;38.70
21275;DHT22;36472;52.170;20.884;2022-08-25T08:53:55;45.70;37.30
21275;DHT22;36472;52.170;20.884;2022-08-25T08:56:29;45.80;36.90
21275;DHT22;36472;52.170;20.884;2022-08-25T08:59:05;45.30;37.90
21275;DHT22;36472;52.170;20.884;2022-08-25T09:01:45;44.90;37.20
21275;DHT22;36472;52.170;20.884;2022-08-25T09:04:25;45.30;37.50
21275;DHT22;36472;52.170;20.884;2022-08-25T09:07:02;45.20;37.40
21275;DHT22;36472;52.170;20.884;2022-08-25T09:09:40;44.70;37.30
21275;DHT22;36472;52.170;20.884;2022-08-25T09:12:22;43.90;38.40
21275;DHT22;36472;52.170;20.884;2022-08-25T09:15:08;43.80;38.90
21275;DHT22;36472;52.170;20.884;2022-08-25T09:18:02;43.10;39.50
21275;DHT22;36472;52.170;20.884;2022-08-25T09:20:48;43.30;40.10
21275;DHT22;36472;52.170;20.884;2022-08-25T09:23:41;44.30;38.50
21275;DHT22;36472;52.170;20.884;2022-08-25T09:26:28;45.30;37.40
21275;DHT22;36472;52.170;20.884;2022-08-25T09:29:06;46.10;33.60
21275;DHT22;36472;52.170;20.884;2022-08-25T09:31:43;46.90;33.60
21275;DHT22;36472;52.170;20.884;2022-08-25T09:34:17;47.60;32.90
21275;DHT22;36472;52.170;20.884;2022-08-25T09:36:48;48.20;31.70
21275;DHT22;36472;52.170;20.884;2022-08-25T09:39:20;48.70;31.00
21275;DHT22;36472;52.170;20.884;2022-08-25T09:41:53;49.20;31.10
21275;DHT22;36472;52.170;20.884;2022-08-25T09:44:26;49.80;29.90
21275;DHT22;36472;52.170;20.884;2022-08-25T09:47:02;50.20;29.90
21275;DHT22;36472;52.170;20.884;2022-08-25T09:49:37;50.60;29.00
21275;DHT22;36472;52.170;20.884;2022-08-25T09:52:31;50.80;28.10
21275;DHT22;36472;52.170;20.884;2022-08-25T09:55:28;50.80;28.60
21275;DHT22;36472;52.170;20.884;2022-08-25T09:58:14;51.10;27.90
21275;DHT22;36472;52.170;20.884;2022-08-25T10:01:00;51.30;28.10
21275;DHT22;36472;52.170;20.884;2022-08-25T10:03:32;51.10;27.70
21275;DHT22;36472;52.170;20.884;2022-08-25T10:06:06;51.10;27.40
21275;DHT22;36472;52.170;20.884;2022-08-25T10:08:52;51.30;27.50
21275;DHT22;36472;52.170;20.884;2022-08-25T10:11:45;51.50;27.60
21275;DHT22;36472;52.170;20.884;2022-08-25T10:14:26;51.60;27.70
21275;DHT22;36472;52.170;20.884;2022-08-25T10:17:13;51.80;26.40
21275;DHT22;36472;52.170;20.884;2022-08-25T10:22:43;52.20;27.00
21275;DHT22;36472;52.170;20.884;2022-08-25T10:25:21;52.40;26.60
21275;DHT22;36472;52.170;20.884;2022-08-25T10:28:06;52.60;26.10
21275;DHT22;36472;52.170;20.884;2022-08-25T10:30:50;52.70;25.00
21275;DHT22;36472;52.170;20.884;2022-08-25T10:33:33;52.50;24.50
21275;DHT22;36472;52.170;20.884;2022-08-25T10:36:16;52.10;23.90
21275;DHT22;36472;52.170;20.884;2022-08-25T10:38:53;51.60;24.30
21275;DHT22;36472;52.170;20.884;2022-08-25T10:41:40;50.90;25.10
21275;DHT22;36472;52.170;20.884;2022-08-25T10:44:23;50.40;25.70
21275;DHT22;36472;52.170;20.884;2022-08-25T10:47:43;49.90;25.80
21275;DHT22;36472;52.170;20.884;2022-08-25T10:50:28;49.30;25.90
21275;DHT22;36472;52.170;20.884;2022-08-25T10:53:13;48.80;25.40
21275;DHT22;36472;52.170;20.884;2022-08-25T10:55:59;48.30;26.20
21275;DHT22;36472;52.170;20.884;2022-08-25T10:58:49;47.70;26.50
21275;DHT22;36472;52.170;20.884;2022-08-25T11:01:39;47.20;26.80
21275;DHT22;36472;52.170;20.884;2022-08-25T11:04:26;46.90;27.30
21275;DHT22;36472;52.170;20.884;2022-08-25T11:07:06;46.60;27.80
21275;DHT22;36472;52.170;20.884;2022-08-25T11:09:40;46.40;26.50
21275;DHT22;36472;52.170;20.884;2022-08-25T11:12:20;46.20;26.70
21275;DHT22;36472;52.170;20.884;2022-08-25T11:14:59;46.10;27.70
21275;DHT22;36472;52.170;20.884;2022-08-25T11:17:42;45.90;27.70
21275;DHT22;36472;52.170;20.884;2022-08-25T11:20:20;45.80;27.80
21275;DHT22;36472;52.170;20.884;2022-08-25T11:23:05;45.60;27.60
21275;DHT22;36472;52.170;20.884;2022-08-25T11:25:41;45.50;28.30
21275;DHT22;36472;52.170;20.884;2022-08-25T11:28:15;45.40;27.80
21275;DHT22;36472;52.170;20.884;2022-08-25T11:30:51;45.20;28.30
21275;DHT22;36472;52.170;20.884;2022-08-25T11:33:23;45.00;28.20
21275;DHT22;36472;52.170;20.884;2022-08-25T11:35:58;44.90;28.40
21275;DHT22;36472;52.170;20.884;2022-08-25T11:38:44;44.80;28.30
21275;DHT22;36472;52.170;20.884;2022-08-25T11:41:28;44.70;28.20
21275;DHT22;36472;52.170;20.884;2022-08-25T11:44:32;44.40;28.00
21275;DHT22;36472;52.170;20.884;2022-08-25T11:50:27;44.20;28.70
21275;DHT22;36472;52.170;20.884;2022-08-25T11:53:17;44.00;28.00
21275;DHT22;36472;52.170;20.884;2022-08-25T11:55:56;43.80;29.50
21275;DHT22;36472;52.170;20.884;2022-08-25T11:58:36;43.60;28.50
21275;DHT22;36472;52.170;20.884;2022-08-25T12:01:12;43.40;28.40
21275;DHT22;36472;52.170;20.884;2022-08-25T12:04:35;43.20;28.40
21275;DHT22;36472;52.170;20.884;2022-08-25T12:07:21;43.10;29.00
21275;DHT22;36472;52.170;20.884;2022-08-25T12:10:17;42.80;28.80
21275;DHT22;36472;52.170;20.884;2022-08-25T12:13:04;42.70;29.20
21275;DHT22;36472;52.170;20.884;2022-08-25T12:15:58;42.50;28.90
21275;DHT22;36472;52.170;20.884;2022-08-25T12:18:41;42.40;28.60
21275;DHT22;36472;52.170;20.884;2022-08-25T12:21:15;42.30;28.80
21275;DHT22;36472;52.170;20.884;2022-08-25T12:24:19;42.20;29.10
21275;DHT22;36472;52.170;20.884;2022-08-25T12:26:55;42.00;29.00
21275;DHT22;36472;52.170;20.884;2022-08-25T12:29:31;42.00;29.30
21275;DHT22;36472;52.170;20.884;2022-08-25T12:35:27;41.90;28.80
21275;DHT22;36472;52.170;20.884;2022-08-25T12:38:04;41.80;28.40
21275;DHT22;36472;52.170;20.884;2022-08-25T12:40:52;41.70;29.30
21275;DHT22;36472;52.170;20.884;2022-08-25T12:43:28;41.70;29.60
21275;DHT22;36472;52.170;20.884;2022-08-25T12:46:32;41.70;29.30
21275;DHT22;36472;52.170;20.884;2022-08-25T12:49:27;41.80;30.00
21275;DHT22;36472;52.170;20.884;2022-08-25T12:52:03;41.60;29.60
21275;DHT22;36472;52.170;20.884;2022-08-25T12:54:45;41.70;29.80
21275;DHT22;36472;52.170;20.884;2022-08-25T12:57:35;41.60;29.50
21275;DHT22;36472;52.170;20.884;2022-08-25T13:00:16;41.60;29.60
21275;DHT22;36472;52.170;20.884;2022-08-25T13:03:09;41.50;29.80
21275;DHT22;36472;52.170;20.884;2022-08-25T13:06:10;41.50;30.40
21275;DHT22;36472;52.170;20.884;2022-08-25T13:12:16;41.20;30.10
21275;DHT22;36472;52.170;20.884;2022-08-25T13:14:53;41.30;30.50
21275;DHT22;36472;52.170;20.884;2022-08-25T13:17:25;41.20;30.10
21275;DHT22;36472;52.170;20.884;2022-08-25T13:20:15;41.10;30.20
21275;DHT22;36472;52.170;20.884;2022-08-25T13:22:47;41.10;30.40
21275;DHT22;36472;52.170;20.884;2022-08-25T13:25:27;41.10;30.40
21275;DHT22;36472;52.170;20.884;2022-08-25T13:28:02;41.00;30.70
21275;DHT22;36472;52.170;20.884;2022-08-25T13:30:37;40.90;31.00
21275;DHT22;36472;52.170;20.884;2022-08-25T13:33:17;40.90;31.30
21275;DHT22;36472;52.170;20.884;2022-08-25T13:35:50;41.00;31.20
21275;DHT22;36472;52.170;20.884;2022-08-25T13:38:42;41.00;31.40
21275;DHT22;36472;52.170;20.884;2022-08-25T13:41:20;40.90;30.80
21275;DHT22;36472;52.170;20.884;2022-08-25T13:43:56;41.00;31.00
21275;DHT22;36472;52.170;20.884;2022-08-25T13:46:29;41.00;30.80
21275;DHT22;36472;52.170;20.884;2022-08-25T13:49:04;41.10;30.70
21275;DHT22;36472;52.170;20.884;2022-08-25T13:51:37;41.20;30.60
21275;DHT22;36472;52.170;20.884;2022-08-25T13:54:24;41.30;30.30
21275;DHT22;36472;52.170;20.884;2022-08-25T13:57:05;41.50;30.20
21275;DHT22;36472;52.170;20.884;2022-08-25T13:59:41;41.70;30.30
21275;DHT22;36472;52.170;20.884;2022-08-25T14:02:38;41.70;30.40
21275;DHT22;36472;52.170;20.884;2022-08-25T14:05:11;41.80;29.40
21275;DHT22;36472;52.170;20.884;2022-08-25T14:07:52;42.00;29.50
21275;DHT22;36472;52.170;20.884;2022-08-25T14:10:43;42.10;29.60
21275;DHT22;36472;52.170;20.884;2022-08-25T14:13:15;42.20;29.20
21275;DHT22;36472;52.170;20.884;2022-08-25T14:16:06;42.30;29.10
21275;DHT22;36472;52.170;20.884;2022-08-25T14:18:37;42.20;29.40
21275;DHT22;36472;52.170;20.884;2022-08-25T14:21:09;42.30;29.50
21275;DHT22;36472;52.170;20.884;2022-08-25T14:23:38;42.20;29.10
21275;DHT22;36472;52.170;20.884;2022-08-25T14:26:07;42.10;29.30
21275;DHT22;36472;52.170;20.884;2022-08-25T14:28:38;42.00;29.20
21275;DHT22;36472;52.170;20.884;2022-08-25T14:31:09;41.80;29.50
21275;DHT22;36472;52.170;20.884;2022-08-25T14:33:50;41.70;29.90
21275;DHT22;36472;52.170;20.884;2022-08-25T14:36:21;41.60;29.90
21275;DHT22;36472;52.170;20.884;2022-08-25T14:38:50;41.50;29.70
21275;DHT22;36472;52.170;20.884;2022-08-25T14:41:21;41.30;29.90
21275;DHT22;36472;52.170;20.884;2022-08-25T14:43:53;41.20;29.70
21275;DHT22;36472;52.170;20.884;2022-08-25T14:46:25;41.20;30.00
21275;DHT22;36472;52.170;20.884;2022-08-25T14:48:58;41.10;29.80
21275;DHT22;36472;52.170;20.884;2022-08-25T14:51:29;41.10;29.80
21275;DHT22;36472;52.170;20.884;2022-08-25T14:54:04;41.10;30.00
21275;DHT22;36472;52.170;20.884;2022-08-25T14:56:35;41.10;30.00
21275;DHT22;36472;52.170;20.884;2022-08-25T14:59:10;41.10;30.10
21275;DHT22;36472;52.170;20.884;2022-08-25T15:01:39;41.10;30.40
21275;DHT22;36472;52.170;20.884;2022-08-25T15:04:12;41.10;30.20
21275;DHT22;36472;52.170;20.884;2022-08-25T15:06:48;41.10;29.80
21275;DHT22;36472;52.170;20.884;2022-08-25T15:09:22;41.10;30.50
21275;DHT22;36472;52.170;20.884;2022-08-25T15:11:52;41.10;29.70
21275;DHT22;36472;52.170;20.884;2022-08-25T15:14:25;41.10;29.70
21275;DHT22;36472;52.170;20.884;2022-08-25T15:17:01;41.00;29.80
21275;DHT22;36472;52.170;20.884;2022-08-25T15:19:30;40.90;29.90
21275;DHT22;36472;52.170;20.884;2022-08-25T15:21:59;40.90;30.00
21275;DHT22;36472;52.170;20.884;2022-08-25T15:24:27;40.80;30.20
21275;DHT22;36472;52.170;20.884;2022-08-25T15:27:03;40.80;29.80
21275;DHT22;36472;52.170;20.884;2022-08-25T15:29:38;40.70;29.60
21275;DHT22;36472;52.170;20.884;2022-08-25T15:32:07;40.60;29.70
21275;DHT22;36472;52.170;20.884;2022-08-25T15:34:49;40.60;29.70
21275;DHT22;36472;52.170;20.884;2022-08-25T15:37:17;40.70;30.00
21275;DHT22;36472;52.170;20.884;2022-08-25T15:39:47;40.60;30.30
21275;DHT22;36472;52.170;20.884;2022-08-25T15:42:15;40.60;30.20
21275;DHT22;36472;52.170;20.884;2022-08-25T15:44:46;40.60;29.90
21275;DHT22;36472;52.170;20.884;2022-08-25T15:47:20;40.60;30.60
21275;DHT22;36472;52.170;20.884;2022-08-25T15:50:01;40.60;29.80
21275;DHT22;36472;52.170;20.884;2022-08-25T15:52:33;40.50;29.60
21275;DHT22;36472;52.170;20.884;2022-08-25T15:55:14;40.50;30.00
21275;DHT22;36472;52.170;20.884;2022-08-25T15:57:46;40.50;29.60
21275;DHT22;36472;52.170;20.884;2022-08-25T16:00:18;40.50;29.50
21275;DHT22;36472;52.170;20.884;2022-08-25T16:02:47;40.40;29.60
21275;DHT22;36472;52.170;20.884;2022-08-25T16:05:17;40.40;29.60
21275;DHT22;36472;52.170;20.884;2022-08-25T16:07:52;40.30;30.10
21275;DHT22;36472;52.170;20.884;2022-08-25T16:10:21;40.20;30.00
21275;DHT22;36472;52.170;20.884;2022-08-25T16:12:51;40.20;29.70
21275;DHT22;36472;52.170;20.884;2022-08-25T16:15:21;40.30;29.60
21275;DHT22;36472;52.170;20.884;2022-08-25T16:17:57;40.30;29.50